createdAt,value
2018-06-07T00:01:21.422Z,73.60
2018-06-07T00:03:50.339Z,73.80
2018-06-07T00:06:19.225Z,74.00
2018-06-07T00:08:48.315Z,73.90
2018-06-07T00:11:17.394Z,74.30
2018-06-07T00:13:46.490Z,74.40
2018-06-07T00:16:15.610Z,74.60
2018-06-07T00:18:44.594Z,74.70
2018-06-07T00:21:13.512Z,75.00
2018-06-07T00:23:42.712Z,75.40
2018-06-07T00:26:11.713Z,75.60
2018-06-07T00:28:40.653Z,76.00
2018-06-07T00:31:09.742Z,76.40
2018-06-07T00:33:38.646Z,76.60
2018-06-07T00:36:08.249Z,76.80
2018-06-07T00:38:37.171Z,77.00
2018-06-07T00:41:06.055Z,77.10
2018-06-07T00:43:35.035Z,77.10
2018-06-07T00:46:04.074Z,76.70
2018-06-07T00:48:33.311Z,76.60
2018-06-07T00:51:02.347Z,76.50
2018-06-07T00:53:31.263Z,76.80
2018-06-07T00:56:00.093Z,77.30
2018-06-07T00:58:29.012Z,77.00
2018-06-07T01:00:57.865Z,77.30
2018-06-07T01:03:26.775Z,77.00
2018-06-07T01:05:55.632Z,77.40
2018-06-07T01:08:24.465Z,78.00
2018-06-07T01:10:53.304Z,78.40
2018-06-07T01:13:22.154Z,78.90
2018-06-07T01:15:51.055Z,79.20
2018-06-07T01:18:20.057Z,79.30
2018-06-07T01:20:48.944Z,79.30
2018-06-07T01:23:17.878Z,79.60
2018-06-07T01:25:46.805Z,79.20
2018-06-07T01:28:15.673Z,79.50
2018-06-07T01:30:49.690Z,80.30
2018-06-07T01:33:35.044Z,79.90
2018-06-07T01:36:03.960Z,79.70
2018-06-07T01:38:43.756Z,80.10
2018-06-07T01:43:41.305Z,80.50
2018-06-07T01:46:10.177Z,80.80
2018-06-07T01:48:39.039Z,80.90
2018-06-07T01:51:07.910Z,81.10
2018-06-07T01:53:36.813Z,81.30
2018-06-07T01:56:12.811Z,80.00
2018-06-07T01:58:41.773Z,76.80
2018-06-07T02:01:10.630Z,77.10
2018-06-07T02:03:39.530Z,76.30
2018-06-07T02:08:36.934Z,76.50
2018-06-07T02:11:05.813Z,77.10
2018-06-07T02:13:34.652Z,76.40
2018-06-07T02:16:03.572Z,77.10
2018-06-07T02:21:17.805Z,78.10
2018-06-07T02:23:46.777Z,77.80
2018-06-07T02:26:15.753Z,78.10
2018-06-07T02:28:44.590Z,77.80
2018-06-07T02:31:13.424Z,77.80
2018-06-07T02:33:42.358Z,78.10
2018-06-07T02:36:11.291Z,78.30
2018-06-07T02:38:40.151Z,78.50
2018-06-07T02:41:09.238Z,78.70
2018-06-07T02:43:38.112Z,79.20
2018-06-07T02:46:06.921Z,79.30
2018-06-07T02:51:04.383Z,79.90
2018-06-07T02:53:33.253Z,80.10
2018-06-07T02:56:02.934Z,80.20
2018-06-07T02:58:31.814Z,80.80
2018-06-07T03:01:00.636Z,80.80
2018-06-07T03:03:29.552Z,81.20
2018-06-07T03:05:58.398Z,81.10
2018-06-07T03:08:27.245Z,81.50
2018-06-07T03:10:56.261Z,81.60
2018-06-07T03:13:25.173Z,81.80
2018-06-07T03:15:54.033Z,82.00
2018-06-07T03:18:23.080Z,82.50
2018-06-07T03:20:52.003Z,82.50
2018-06-07T03:23:21.092Z,82.70
2018-06-07T03:25:50.055Z,83.10
2018-06-07T03:28:19.097Z,83.30
2018-06-07T03:30:48.045Z,83.60
2018-06-07T03:33:16.932Z,83.30
2018-06-07T03:35:45.988Z,82.90
2018-06-07T03:38:14.813Z,82.80
2018-06-07T03:40:43.975Z,83.30
2018-06-07T03:43:12.833Z,83.30
2018-06-07T03:45:41.915Z,83.40
2018-06-07T03:50:39.391Z,84.00
2018-06-07T03:53:08.271Z,83.70
2018-06-07T03:55:37.296Z,83.60
2018-06-07T03:58:06.563Z,83.70
2018-06-07T04:00:35.414Z,83.40
2018-06-07T04:03:04.312Z,83.50
2018-06-07T04:05:33.430Z,84.10
2018-06-07T04:08:02.141Z,83.90
2018-06-07T04:12:59.501Z,83.80
2018-06-07T04:17:57.606Z,83.40
2018-06-07T04:20:26.492Z,83.60
2018-06-07T04:22:55.329Z,83.90
2018-06-07T04:25:24.393Z,84.00
2018-06-07T04:27:53.452Z,83.50
2018-06-07T04:32:51.861Z,83.10
2018-06-07T04:37:50.647Z,83.90
2018-06-07T04:40:19.663Z,83.00
2018-06-07T04:42:48.617Z,83.30
2018-06-07T04:45:17.564Z,83.50
2018-06-07T04:50:22.740Z,83.70
2018-06-07T04:52:51.785Z,82.40
2018-06-07T04:55:20.806Z,82.00
2018-06-07T04:57:49.643Z,82.20
2018-06-07T05:00:18.645Z,82.50
2018-06-07T05:02:48.506Z,82.60
2018-06-07T05:05:17.479Z,81.80
2018-06-07T05:10:16.270Z,79.80
2018-06-07T05:15:25.090Z,78.30
2018-06-07T05:17:54.215Z,77.30
2018-06-07T05:20:23.071Z,77.10
2018-06-07T05:22:51.981Z,77.60
2018-06-07T05:25:21.954Z,77.20
2018-06-07T05:27:50.920Z,76.60
2018-06-07T05:30:19.834Z,76.60
2018-06-07T05:32:48.773Z,76.80
2018-06-07T05:37:46.316Z,75.60
2018-06-07T05:40:15.432Z,75.10
2018-06-07T05:45:12.726Z,74.30
2018-06-07T05:47:41.584Z,74.90
2018-06-07T05:50:10.730Z,73.80
2018-06-07T05:52:39.973Z,73.10
2018-06-07T05:55:15.198Z,72.70
2018-06-07T05:57:44.166Z,73.30
2018-06-07T06:00:13.029Z,72.90
2018-06-07T06:02:42.157Z,72.40
2018-06-07T06:05:11.210Z,72.10
2018-06-07T06:07:40.195Z,72.30
2018-06-07T06:10:09.359Z,71.80
2018-06-07T06:12:38.427Z,71.00
2018-06-07T06:15:07.280Z,71.70
2018-06-07T06:17:36.457Z,71.50
2018-06-07T06:20:07.934Z,71.70
2018-06-07T06:22:36.918Z,71.30
2018-06-07T06:25:05.833Z,70.80
2018-06-07T06:27:34.685Z,69.80
2018-06-07T06:30:03.853Z,69.50
2018-06-07T06:32:34.636Z,69.30
2018-06-07T06:35:05.720Z,69.00
2018-06-07T06:37:47.464Z,68.20
2018-06-07T06:40:16.510Z,65.40
2018-06-07T06:42:45.680Z,66.30
2018-06-07T06:45:15.239Z,66.90
2018-06-07T06:50:12.896Z,69.00
2018-06-07T06:52:41.993Z,69.30
2018-06-07T06:55:11.049Z,70.00
2018-06-07T06:57:40.163Z,68.00
2018-06-07T07:00:09.473Z,67.00
2018-06-07T07:02:40.320Z,66.70
2018-06-07T07:05:09.622Z,67.00
2018-06-07T07:07:38.728Z,65.90
2018-06-07T07:10:07.815Z,65.90
2018-06-07T07:12:36.994Z,66.90
2018-06-07T07:15:06.098Z,65.80
2018-06-07T07:17:35.144Z,64.30
2018-06-07T07:20:04.022Z,64.20
2018-06-07T07:22:32.998Z,64.80
2018-06-07T07:25:01.853Z,64.10
2018-06-07T07:27:30.742Z,64.70
2018-06-07T07:30:00.250Z,64.50
2018-06-07T07:32:29.209Z,64.20
2018-06-07T07:34:58.220Z,64.40
2018-06-07T07:37:27.116Z,63.40
2018-06-07T07:39:56.605Z,63.40
2018-06-07T07:42:25.729Z,63.40
2018-06-07T07:44:54.632Z,63.00
2018-06-07T07:47:23.503Z,62.50
2018-06-07T07:49:52.368Z,63.40
2018-06-07T07:52:21.324Z,62.30
2018-06-07T07:54:50.584Z,61.20
2018-06-07T07:57:19.838Z,61.30
2018-06-07T07:59:48.698Z,61.80
2018-06-07T08:02:17.958Z,61.70
2018-06-07T08:04:46.932Z,61.70
2018-06-07T08:09:44.778Z,61.70
2018-06-07T08:12:13.750Z,62.30
2018-06-07T08:14:43.690Z,62.20
2018-06-07T08:17:12.722Z,61.80
2018-06-07T08:19:42.680Z,62.50
2018-06-07T08:22:11.703Z,62.70
2018-06-07T08:24:40.690Z,61.90
2018-06-07T08:27:09.575Z,61.40
2018-06-07T08:29:38.557Z,60.90
2018-06-07T08:32:07.526Z,60.70
2018-06-07T08:34:36.620Z,60.40
2018-06-07T08:37:05.802Z,60.60
2018-06-07T08:39:34.858Z,60.70
2018-06-07T08:42:04.085Z,60.50
2018-06-07T08:44:33.042Z,60.60
2018-06-07T08:47:01.882Z,60.70
2018-06-07T08:49:30.812Z,60.30
2018-06-07T08:51:59.709Z,60.90
2018-06-07T08:54:29.593Z,60.60
2018-06-07T08:56:58.561Z,60.90
2018-06-07T08:59:27.626Z,59.90
2018-06-07T09:01:57.136Z,59.20
2018-06-07T09:04:26.734Z,59.20
2018-06-07T09:06:56.581Z,59.30
2018-06-07T09:09:26.822Z,59.20
2018-06-07T09:11:57.012Z,59.40
2018-06-07T09:14:28.206Z,59.70
2018-06-07T09:19:27.607Z,59.10
2018-06-07T09:21:58.175Z,58.60
2018-06-07T09:24:31.170Z,59.10
2018-06-07T09:27:01.794Z,58.90
2018-06-07T09:29:31.950Z,58.50
2018-06-07T09:32:04.121Z,57.90
2018-06-07T09:34:34.768Z,58.00
2018-06-07T09:37:06.057Z,57.70
2018-06-07T09:39:36.614Z,57.60
2018-06-07T09:42:06.350Z,57.00
2018-06-07T09:44:36.557Z,56.00
2018-06-07T09:47:06.906Z,56.20
2018-06-07T09:49:36.055Z,55.90
2018-06-07T09:52:05.404Z,55.50
2018-06-07T09:54:34.743Z,55.00
2018-06-07T09:59:32.891Z,53.70
2018-06-07T10:02:04.521Z,54.20
2018-06-07T10:04:34.858Z,53.90
2018-06-07T10:07:04.449Z,53.90
2018-06-07T10:09:34.148Z,51.80
2018-06-07T10:12:03.409Z,54.10
2018-06-07T10:14:32.616Z,52.90
2018-06-07T10:19:30.654Z,51.10
2018-06-07T10:21:59.777Z,47.80
2018-06-07T10:24:32.262Z,48.10
2018-06-07T10:27:04.449Z,46.90
2018-06-07T10:29:33.634Z,47.70
2018-06-07T10:32:03.261Z,45.60
2018-06-07T10:34:33.080Z,45.00
2018-06-07T10:37:02.561Z,45.80
2018-06-07T10:39:35.535Z,45.50
2018-06-07T10:42:05.291Z,45.10
2018-06-07T10:44:34.723Z,45.90
2018-06-07T10:47:07.059Z,45.00
2018-06-07T10:49:37.029Z,44.20
2018-06-07T10:52:07.161Z,44.10
2018-06-07T10:54:37.516Z,43.90
2018-06-07T10:57:06.749Z,42.90
2018-06-07T10:59:36.072Z,42.30
2018-06-07T11:02:05.565Z,42.10
2018-06-07T11:04:35.478Z,42.00
2018-06-07T11:07:05.489Z,43.80
2018-06-07T11:12:05.300Z,43.00
2018-06-07T11:14:35.479Z,43.10
2018-06-07T11:17:06.621Z,42.30
2018-06-07T11:19:36.818Z,41.70
2018-06-07T11:22:07.078Z,42.20
2018-06-07T11:24:37.951Z,41.00
2018-06-07T11:27:07.760Z,41.40
2018-06-07T11:29:37.404Z,41.70
2018-06-07T11:32:07.497Z,41.50
2018-06-07T11:34:38.213Z,42.70
2018-06-07T11:39:37.146Z,42.10
2018-06-07T11:42:07.208Z,42.40
2018-06-07T11:44:36.592Z,41.20
2018-06-07T11:47:06.593Z,40.50
2018-06-07T11:49:36.599Z,39.60
2018-06-07T11:52:06.320Z,40.80
2018-06-07T11:54:36.194Z,40.10
2018-06-07T11:57:05.690Z,41.00
2018-06-07T11:59:35.791Z,40.10
2018-06-07T12:02:05.750Z,41.90
2018-06-07T12:04:35.711Z,42.10
2018-06-07T12:07:06.143Z,42.60
2018-06-07T12:09:35.982Z,41.90
2018-06-07T12:14:35.815Z,41.50
2018-06-07T12:17:05.824Z,40.30
2018-06-07T12:19:36.594Z,40.20
2018-06-07T12:22:06.228Z,39.10
2018-06-07T12:24:35.967Z,38.80
2018-06-07T12:27:06.403Z,39.10
2018-06-07T12:29:38.258Z,38.30
2018-06-07T12:32:12.246Z,38.80
2018-06-07T12:34:42.192Z,38.40
2018-06-07T12:37:11.643Z,38.70
2018-06-07T12:39:41.401Z,37.90
2018-06-07T12:42:10.890Z,39.00
2018-06-07T12:44:40.215Z,38.30
2018-06-07T12:47:09.455Z,38.60
2018-06-07T12:49:40.071Z,38.30
2018-06-07T12:52:09.519Z,38.90
2018-06-07T12:54:39.038Z,40.00
2018-06-07T12:57:09.790Z,41.00
2018-06-07T12:59:39.994Z,41.30
2018-06-07T13:02:10.461Z,41.90
2018-06-07T13:04:40.013Z,41.20
2018-06-07T13:07:09.751Z,40.30
2018-06-07T13:09:39.436Z,39.50
2018-06-07T13:12:09.434Z,37.30
2018-06-07T13:14:40.045Z,36.80
2018-06-07T13:17:09.758Z,36.70
2018-06-07T13:19:39.457Z,35.90
2018-06-07T13:22:09.272Z,34.20
2018-06-07T13:24:39.305Z,34.50
2018-06-07T13:27:09.479Z,34.90
2018-06-07T13:29:39.418Z,34.70
2018-06-07T13:32:08.713Z,35.80
2018-06-07T13:34:38.118Z,34.60
2018-06-07T13:37:08.930Z,33.00
2018-06-07T13:39:39.144Z,32.40
2018-06-07T13:42:08.500Z,32.50
2018-06-07T13:44:37.920Z,33.60
2018-06-07T13:47:07.357Z,33.60
2018-06-07T13:52:06.717Z,33.20
2018-06-07T13:54:36.078Z,32.60
2018-06-07T13:59:35.289Z,32.20
2018-06-07T14:02:04.639Z,31.70
2018-06-07T14:04:33.893Z,31.90
2018-06-07T14:09:32.644Z,31.60
2018-06-07T14:12:01.876Z,31.10
2018-06-07T14:14:31.188Z,31.80
2018-06-07T14:17:00.418Z,31.10
2018-06-07T14:19:29.858Z,31.60
2018-06-07T14:21:59.002Z,32.50
2018-06-07T14:24:28.197Z,32.60
2018-06-07T14:26:57.438Z,33.60
2018-06-07T14:29:26.942Z,34.10
2018-06-07T14:31:56.518Z,34.30
2018-06-07T14:34:25.937Z,36.10
2018-06-07T14:36:55.845Z,37.30
2018-06-07T14:39:25.564Z,38.90
2018-06-07T14:41:54.628Z,39.60
2018-06-07T14:44:24.007Z,39.30
2018-06-07T14:46:54.029Z,38.20
2018-06-07T14:49:23.351Z,38.20
2018-06-07T14:51:52.645Z,38.50
2018-06-07T14:54:23.213Z,38.40
2018-06-07T14:56:52.511Z,38.10
2018-06-07T14:59:22.054Z,37.00
2018-06-07T15:01:54.356Z,37.50
2018-06-07T15:04:23.493Z,38.50
2018-06-07T15:06:54.013Z,39.00
2018-06-07T15:09:23.516Z,40.40
2018-06-07T15:11:52.989Z,41.50
2018-06-07T15:14:22.508Z,42.80
2018-06-07T15:16:51.730Z,43.80
2018-06-07T15:19:24.874Z,45.00
2018-06-07T15:21:54.460Z,46.20
2018-06-07T15:26:52.234Z,47.40
2018-06-07T15:29:21.610Z,48.10
2018-06-07T15:31:52.687Z,48.80
2018-06-07T15:39:21.964Z,49.40
2018-06-07T15:41:50.996Z,50.20
2018-06-07T15:44:20.066Z,50.00
2018-06-07T15:46:51.280Z,50.60
2018-06-07T15:49:20.562Z,50.50
2018-06-07T15:51:49.831Z,51.60
2018-06-07T15:54:19.009Z,53.50
2018-06-07T15:56:50.574Z,56.40
2018-06-07T15:59:19.495Z,58.70
2018-06-07T16:01:48.694Z,60.80
2018-06-07T16:04:17.700Z,63.10
2018-06-07T16:09:18.778Z,64.30
2018-06-07T16:11:47.918Z,67.30
2018-06-07T16:14:17.085Z,67.00
2018-06-07T16:16:46.263Z,70.10
2018-06-07T16:19:15.300Z,71.30
2018-06-07T16:21:44.339Z,71.40
2018-06-07T16:24:23.515Z,71.50
2018-06-07T16:26:52.537Z,71.40
2018-06-07T16:29:21.683Z,70.00
2018-06-07T16:31:50.691Z,73.00
2018-06-07T16:34:20.109Z,75.60
2018-06-07T16:36:49.144Z,76.20
2018-06-07T16:39:18.116Z,82.90
2018-06-07T16:44:15.833Z,82.70
2018-06-07T16:46:44.758Z,84.90
2018-06-07T16:49:13.755Z,86.20
2018-06-07T16:51:42.889Z,86.80
2018-06-07T16:54:11.889Z,85.00
2018-06-07T16:56:40.757Z,86.40
2018-06-07T17:01:38.335Z,85.60
2018-06-07T17:06:36.007Z,87.50
2018-06-07T17:09:08.261Z,86.40
2018-06-07T17:11:37.534Z,85.70
2018-06-07T17:14:06.685Z,86.20
2018-06-07T17:16:35.635Z,87.30
2018-06-07T17:19:04.453Z,87.70
2018-06-07T17:24:01.764Z,86.90
2018-06-07T17:26:30.780Z,87.00
2018-06-07T17:28:59.624Z,88.80
2018-06-07T17:31:28.847Z,87.20
2018-06-07T17:33:57.737Z,87.70
2018-06-07T17:36:26.621Z,87.60
2018-06-07T17:38:55.451Z,89.30
2018-06-07T17:41:24.440Z,90.20
2018-06-07T17:43:53.507Z,88.40
2018-06-07T17:46:22.483Z,86.50
2018-06-07T17:48:51.248Z,86.80
2018-06-07T17:51:20.162Z,86.80
2018-06-07T17:53:49.086Z,86.40
2018-06-07T17:56:18.070Z,86.70
2018-06-07T17:58:46.874Z,87.60
2018-06-07T18:01:15.673Z,89.30
2018-06-07T18:03:44.630Z,88.40
2018-06-07T18:06:13.491Z,86.50
2018-06-07T18:08:42.433Z,84.50
2018-06-07T18:11:11.552Z,87.00
2018-06-07T18:16:08.962Z,90.30
2018-06-07T18:18:37.784Z,90.50
2018-06-07T18:21:07.355Z,90.20
2018-06-07T18:23:36.422Z,89.50
2018-06-07T18:26:05.344Z,89.00
2018-06-07T18:28:34.373Z,88.80
2018-06-07T18:31:03.302Z,86.60
2018-06-07T18:33:32.360Z,87.60
2018-06-07T18:36:01.258Z,87.30
2018-06-07T18:38:30.072Z,87.60
2018-06-07T18:40:58.915Z,85.90
2018-06-07T18:43:27.835Z,85.80
2018-06-07T18:45:56.714Z,86.40
2018-06-07T18:48:26.474Z,86.80
2018-06-07T18:50:55.319Z,86.20
2018-06-07T18:53:24.252Z,86.10
2018-06-07T18:55:53.167Z,85.20
2018-06-07T18:58:22.037Z,86.30
2018-06-07T19:00:50.890Z,87.20
2018-06-07T19:03:19.829Z,87.20
2018-06-07T19:05:48.703Z,88.30
2018-06-07T19:08:17.644Z,88.80
2018-06-07T19:10:46.794Z,86.60
2018-06-07T19:13:20.903Z,85.50
2018-06-07T19:15:49.871Z,85.40
2018-06-07T19:18:19.011Z,85.50
2018-06-07T19:20:54.952Z,86.30
2018-06-07T19:23:23.955Z,87.20
2018-06-07T19:25:57.991Z,87.90
2018-06-07T19:28:26.862Z,88.00
2018-06-07T19:30:55.853Z,88.40
2018-06-07T19:34:33.672Z,89.00
2018-06-07T19:37:02.624Z,88.60
2018-06-07T19:40:38.846Z,89.10
2018-06-07T19:43:07.758Z,87.10
2018-06-07T19:45:36.561Z,87.80
2018-06-07T19:48:05.454Z,88.40
2018-06-07T19:50:34.340Z,87.90
2018-06-07T19:53:03.283Z,87.70
2018-06-07T19:55:32.274Z,88.30
2018-06-07T19:58:01.169Z,88.40
2018-06-07T20:00:30.083Z,88.10
2018-06-07T20:02:58.930Z,89.60
2018-06-07T20:05:28.222Z,90.50
2018-06-07T20:07:57.136Z,90.70
2018-06-07T20:10:26.043Z,90.70
2018-06-07T20:12:54.955Z,91.00
2018-06-07T20:15:23.937Z,91.10
2018-06-07T20:17:52.798Z,91.40
2018-06-07T20:20:21.824Z,91.40
2018-06-07T20:22:51.079Z,91.40
2018-06-07T20:25:20.224Z,91.80
2018-06-07T20:27:49.180Z,91.30
2018-06-07T20:30:18.193Z,91.10
2018-06-07T20:35:15.750Z,90.90
2018-06-07T20:37:44.690Z,91.30
2018-06-07T20:42:42.097Z,91.60
2018-06-07T20:45:11.073Z,91.40
2018-06-07T20:47:39.994Z,91.20
2018-06-07T20:50:08.907Z,91.60
2018-06-07T20:55:06.279Z,90.90
2018-06-07T21:00:03.785Z,91.00
2018-06-07T21:02:32.595Z,91.30
2018-06-07T21:05:01.644Z,91.60
2018-06-07T21:07:30.654Z,91.60
2018-06-07T21:09:59.518Z,91.70
2018-06-07T21:12:28.431Z,91.70
2018-06-07T21:14:57.383Z,91.50
2018-06-07T21:17:26.494Z,91.50
2018-06-07T21:19:55.662Z,91.60
2018-06-07T21:22:24.588Z,91.60
2018-06-07T21:24:53.448Z,91.50
2018-06-07T21:27:22.200Z,91.60
2018-06-07T21:29:51.132Z,91.90
2018-06-07T21:32:20.035Z,92.30
2018-06-07T21:37:17.836Z,91.90
2018-06-07T21:39:46.792Z,92.30
2018-06-07T21:42:15.686Z,91.60
2018-06-07T21:44:44.495Z,91.50
2018-06-07T21:47:13.430Z,91.20
2018-06-07T21:49:42.239Z,91.20
2018-06-07T21:52:11.108Z,91.10
2018-06-07T21:54:39.952Z,91.10
2018-06-07T21:57:08.815Z,90.80
2018-06-07T21:59:37.710Z,91.00
2018-06-07T22:02:06.758Z,90.70
2018-06-07T22:04:35.625Z,90.80
2018-06-07T22:07:04.553Z,90.80
2018-06-07T22:09:33.425Z,91.00
2018-06-07T22:12:02.519Z,90.90
2018-06-07T22:14:31.396Z,90.80
2018-06-07T22:17:00.253Z,90.90
2018-06-07T22:19:29.123Z,90.80
2018-06-07T22:21:58.067Z,90.60
2018-06-07T22:24:27.216Z,90.10
2018-06-07T22:26:56.130Z,90.30
2018-06-07T22:29:24.960Z,90.40
2018-06-07T22:31:53.816Z,89.80
2018-06-07T22:34:22.724Z,90.00
2018-06-07T22:36:51.598Z,90.10
2018-06-07T22:39:20.438Z,90.80
2018-06-07T22:41:49.363Z,90.70
2018-06-07T22:44:18.222Z,90.90
2018-06-07T22:46:47.054Z,90.70
2018-06-07T22:49:15.911Z,90.70
2018-06-07T22:51:44.883Z,90.80
2018-06-07T22:54:13.714Z,90.80
2018-06-07T22:56:42.634Z,90.80
2018-06-07T22:59:17.952Z,90.90
2018-06-07T23:04:15.242Z,91.00
2018-06-07T23:06:44.043Z,91.50
2018-06-07T23:11:41.543Z,91.70
2018-06-07T23:14:10.444Z,91.80
2018-06-07T23:16:39.485Z,92.00
2018-06-07T23:19:08.475Z,92.00
2018-06-07T23:24:05.832Z,92.10
2018-06-07T23:26:34.718Z,92.20
2018-06-07T23:29:03.638Z,92.10
2018-06-07T23:31:33.352Z,92.30
2018-06-07T23:34:02.211Z,92.40
2018-06-07T23:36:31.033Z,92.60
2018-06-07T23:38:59.904Z,92.60
2018-06-07T23:41:32.521Z,92.80
2018-06-07T23:44:05.002Z,92.90
2018-06-07T23:46:36.957Z,92.60
2018-06-07T23:49:08.496Z,92.60
2018-06-07T23:51:39.856Z,92.80
2018-06-07T23:54:12.680Z,92.90
2018-06-07T23:56:45.813Z,93.00
2018-06-07T23:59:14.813Z,93.00
